createdAt,value
2016-12-18T00:00:10.750Z,1028.56
2016-12-18T00:01:21.795Z,1028.55
2016-12-18T00:02:32.545Z,1028.54
2016-12-18T00:03:43.266Z,1028.62
2016-12-18T00:04:53.965Z,1028.54
2016-12-18T00:06:05.001Z,1028.59
2016-12-18T00:07:15.722Z,1028.57
2016-12-18T00:08:26.421Z,1028.63
2016-12-18T00:09:37.164Z,1028.67
2016-12-18T00:10:47.859Z,1028.66
2016-12-18T00:11:58.584Z,1028.64
2016-12-18T00:13:09.314Z,1028.6
2016-12-18T00:14:20.025Z,1028.7
2016-12-18T00:15:30.797Z,1028.71
2016-12-18T00:16:41.518Z,1028.69
2016-12-18T00:17:52.238Z,1028.69
2016-12-18T00:19:02.989Z,1028.7
2016-12-18T00:20:13.727Z,1028.62
2016-12-18T00:21:24.455Z,1028.66
2016-12-18T00:22:35.151Z,1028.63
2016-12-18T00:23:45.849Z,1028.55
2016-12-18T00:24:56.593Z,1028.59
2016-12-18T00:26:07.315Z,1028.56
2016-12-18T00:27:18.039Z,1028.62
2016-12-18T00:28:28.806Z,1028.59
2016-12-18T00:29:39.523Z,1028.66
2016-12-18T00:30:50.251Z,1028.6
2016-12-18T00:32:00.997Z,1028.63
2016-12-18T00:33:11.741Z,1028.65
2016-12-18T00:34:22.468Z,1028.7
2016-12-18T00:35:33.204Z,1028.69
2016-12-18T00:36:43.928Z,1028.73
2016-12-18T00:37:54.695Z,1028.64
2016-12-18T00:39:05.438Z,1028.69
2016-12-18T00:40:16.143Z,1028.67
2016-12-18T00:41:26.862Z,1028.69
2016-12-18T00:42:37.601Z,1028.66
2016-12-18T00:43:48.331Z,1028.62
2016-12-18T00:44:59.076Z,1028.63
2016-12-18T00:46:09.843Z,1028.64
2016-12-18T00:47:20.567Z,1028.61
2016-12-18T00:48:31.281Z,1028.58
2016-12-18T00:49:42.009Z,1028.51
2016-12-18T00:50:52.730Z,1028.43
2016-12-18T00:52:03.478Z,1028.47
2016-12-18T00:53:14.218Z,1028.4
2016-12-18T00:54:24.940Z,1028.36
2016-12-18T00:55:35.664Z,1028.38
2016-12-18T00:56:46.390Z,1028.36
2016-12-18T00:57:57.131Z,1028.36
2016-12-18T00:59:07.880Z,1028.35
2016-12-18T01:00:18.602Z,1028.35
2016-12-18T01:01:29.347Z,1028.4
2016-12-18T01:02:40.082Z,1028.45
2016-12-18T01:03:50.783Z,1028.45
2016-12-18T01:05:01.803Z,1028.51
2016-12-18T01:06:12.528Z,1028.49
2016-12-18T01:07:23.249Z,1028.47
2016-12-18T01:08:33.991Z,1028.51
2016-12-18T01:09:44.722Z,1028.46
2016-12-18T01:10:55.442Z,1028.36
2016-12-18T01:12:06.169Z,1028.31
2016-12-18T01:13:16.879Z,1028.31
2016-12-18T01:14:27.592Z,1028.36
2016-12-18T01:15:38.296Z,1028.33
2016-12-18T01:16:49.013Z,1028.27
2016-12-18T01:17:59.738Z,1028.2
2016-12-18T01:19:10.479Z,1028.27
2016-12-18T01:20:21.226Z,1028.27
2016-12-18T01:21:31.955Z,1028.32
2016-12-18T01:22:42.693Z,1028.3
2016-12-18T01:23:53.468Z,1028.25
2016-12-18T01:25:04.217Z,1028.3
2016-12-18T01:26:14.964Z,1028.2
2016-12-18T01:27:25.699Z,1028.18
2016-12-18T01:28:36.420Z,1028.17
2016-12-18T01:29:47.173Z,1028.12
2016-12-18T01:30:57.891Z,1028.13
2016-12-18T01:32:08.623Z,1028.13
2016-12-18T01:33:19.341Z,1028.08
2016-12-18T01:34:30.085Z,1028.05
2016-12-18T01:35:40.828Z,1028.05
2016-12-18T01:36:51.553Z,1028.02
2016-12-18T01:38:02.299Z,1028.02
2016-12-18T01:39:13.070Z,1028.03
2016-12-18T01:40:23.815Z,1028
2016-12-18T01:41:34.558Z,1027.98
2016-12-18T01:42:45.283Z,1027.88
2016-12-18T01:43:56.022Z,1027.82
2016-12-18T01:45:06.746Z,1027.83
2016-12-18T01:46:17.488Z,1027.85
2016-12-18T01:47:28.206Z,1027.88
2016-12-18T01:48:38.928Z,1027.87
2016-12-18T01:49:49.648Z,1027.88
2016-12-18T01:51:00.372Z,1027.87
2016-12-18T01:52:11.097Z,1027.85
2016-12-18T01:53:21.793Z,1027.84
2016-12-18T01:54:32.518Z,1027.82
2016-12-18T01:55:43.255Z,1027.83
2016-12-18T01:56:53.990Z,1027.83
2016-12-18T01:58:04.752Z,1027.85
2016-12-18T01:59:15.470Z,1027.87
2016-12-18T02:00:26.212Z,1027.82
2016-12-18T02:01:36.924Z,1027.75
2016-12-18T02:02:47.640Z,1027.78
2016-12-18T02:03:58.425Z,1027.76
2016-12-18T02:05:09.153Z,1027.77
2016-12-18T02:06:19.892Z,1027.75
2016-12-18T02:07:30.620Z,1027.77
2016-12-18T02:08:41.334Z,1027.73
2016-12-18T02:09:52.056Z,1027.74
2016-12-18T02:11:02.786Z,1027.77
2016-12-18T02:12:13.532Z,1027.7
2016-12-18T02:13:24.255Z,1027.7
2016-12-18T02:14:34.999Z,1027.68
2016-12-18T02:15:45.722Z,1027.71
2016-12-18T02:16:56.438Z,1027.66
2016-12-18T02:18:07.152Z,1027.67
2016-12-18T02:19:17.905Z,1027.69
2016-12-18T02:20:28.626Z,1027.65
2016-12-18T02:21:39.368Z,1027.66
2016-12-18T02:22:50.068Z,1027.64
2016-12-18T02:24:00.794Z,1027.64
2016-12-18T02:25:11.818Z,1027.59
2016-12-18T02:26:22.555Z,1027.56
2016-12-18T02:27:33.327Z,1027.52
2016-12-18T02:28:44.051Z,1027.5
2016-12-18T02:29:54.793Z,1027.56
2016-12-18T02:31:05.507Z,1027.47
2016-12-18T02:32:16.228Z,1027.42
2016-12-18T02:33:26.953Z,1027.49
2016-12-18T02:34:37.673Z,1027.53
2016-12-18T02:35:48.402Z,1027.51
2016-12-18T02:36:59.122Z,1027.53
2016-12-18T02:38:09.845Z,1027.48
2016-12-18T02:39:20.565Z,1027.54
2016-12-18T02:40:31.307Z,1027.51
2016-12-18T02:41:42.053Z,1027.49
2016-12-18T02:42:52.802Z,1027.5
2016-12-18T02:44:03.513Z,1027.42
2016-12-18T02:45:14.244Z,1027.48
2016-12-18T02:46:24.980Z,1027.49
2016-12-18T02:47:35.687Z,1027.49
2016-12-18T02:48:46.433Z,1027.49
2016-12-18T02:49:57.472Z,1027.48
2016-12-18T02:51:08.221Z,1027.48
2016-12-18T02:52:18.946Z,1027.45
2016-12-18T02:53:30.006Z,1027.45
2016-12-18T02:54:40.738Z,1027.43
2016-12-18T02:55:51.455Z,1027.41
2016-12-18T02:57:02.201Z,1027.39
2016-12-18T02:58:12.926Z,1027.37
2016-12-18T02:59:23.663Z,1027.36
2016-12-18T03:00:34.389Z,1027.38
2016-12-18T03:01:45.110Z,1027.44
2016-12-18T03:02:55.824Z,1027.38
2016-12-18T03:04:06.548Z,1027.36
2016-12-18T03:05:17.266Z,1027.36
2016-12-18T03:06:27.998Z,1027.33
2016-12-18T03:07:38.744Z,1027.35
2016-12-18T03:08:49.486Z,1027.3
2016-12-18T03:10:00.216Z,1027.34
2016-12-18T03:11:10.953Z,1027.31
2016-12-18T03:12:21.693Z,1027.34
2016-12-18T03:13:32.398Z,1027.33
2016-12-18T03:14:43.138Z,1027.34
2016-12-18T03:15:53.916Z,1027.33
2016-12-18T03:17:04.676Z,1027.34
2016-12-18T03:18:15.397Z,1027.37
2016-12-18T03:19:26.126Z,1027.33
2016-12-18T03:20:36.868Z,1027.31
2016-12-18T03:21:47.618Z,1027.28
2016-12-18T03:22:58.331Z,1027.27
2016-12-18T03:24:09.059Z,1027.22
2016-12-18T03:25:19.784Z,1027.17
2016-12-18T03:26:30.519Z,1027.17
2016-12-18T03:27:41.243Z,1027.2
2016-12-18T03:28:51.961Z,1027.17
2016-12-18T03:30:02.665Z,1027.17
2016-12-18T03:31:13.411Z,1027.21
2016-12-18T03:32:24.099Z,1027.18
2016-12-18T03:33:34.823Z,1027.18
2016-12-18T03:34:45.549Z,1027.18
2016-12-18T03:35:56.313Z,1027.15
2016-12-18T03:37:07.044Z,1027.14
2016-12-18T03:38:17.787Z,1027.13
2016-12-18T03:39:28.563Z,1027.14
2016-12-18T03:40:39.308Z,1027.12
2016-12-18T03:41:50.029Z,1027.1
2016-12-18T03:43:00.752Z,1027.08
2016-12-18T03:44:11.495Z,1027.09
2016-12-18T03:45:22.217Z,1027.13
2016-12-18T03:46:32.958Z,1027.12
2016-12-18T03:47:43.685Z,1027.1
2016-12-18T03:48:54.419Z,1027.11
2016-12-18T03:50:05.122Z,1027.1
2016-12-18T03:51:15.838Z,1027.1
2016-12-18T03:52:26.580Z,1027.14
2016-12-18T03:53:37.284Z,1027.14
2016-12-18T03:54:48.001Z,1027.17
2016-12-18T03:55:58.729Z,1027.15
2016-12-18T03:57:09.468Z,1027.12
2016-12-18T03:58:20.195Z,1027.13
2016-12-18T03:59:30.941Z,1027.12
2016-12-18T04:00:41.684Z,1027.11
2016-12-18T04:01:52.398Z,1027.13
2016-12-18T04:03:03.426Z,1027.1
2016-12-18T04:04:14.157Z,1027.06
2016-12-18T04:05:24.915Z,1027.12
2016-12-18T04:06:35.660Z,1027.11
2016-12-18T04:07:46.381Z,1027.11
2016-12-18T04:08:57.124Z,1027.14
2016-12-18T04:10:07.855Z,1027.13
2016-12-18T04:11:18.573Z,1027.15
2016-12-18T04:12:29.268Z,1027.11
2016-12-18T04:13:39.994Z,1027.1
2016-12-18T04:14:50.728Z,1027.12
2016-12-18T04:16:01.457Z,1027.14
2016-12-18T04:17:12.203Z,1027.11
2016-12-18T04:18:22.948Z,1027.1
2016-12-18T04:19:33.669Z,1027.12
2016-12-18T04:20:44.419Z,1027.14
2016-12-18T04:21:55.157Z,1027.04
2016-12-18T04:23:05.913Z,1027.07
2016-12-18T04:24:16.657Z,1027.04
2016-12-18T04:25:27.375Z,1027.05
2016-12-18T04:26:38.088Z,1027.03
2016-12-18T04:27:48.796Z,1027.08
2016-12-18T04:28:59.513Z,1027.05
2016-12-18T04:30:10.237Z,1026.99
2016-12-18T04:31:20.950Z,1027.01
2016-12-18T04:32:31.647Z,1026.99
2016-12-18T04:33:42.354Z,1026.96
2016-12-18T04:34:53.060Z,1026.97
2016-12-18T04:36:04.117Z,1026.95
2016-12-18T04:37:14.860Z,1026.91
2016-12-18T04:38:25.628Z,1026.95
2016-12-18T04:39:36.673Z,1026.89
2016-12-18T04:40:47.400Z,1026.86
2016-12-18T04:41:58.143Z,1026.83
2016-12-18T04:43:08.873Z,1026.88
2016-12-18T04:44:19.603Z,1026.87
2016-12-18T04:45:30.334Z,1026.87
2016-12-18T04:46:41.081Z,1026.83
2016-12-18T04:47:51.850Z,1026.82
2016-12-18T04:49:02.600Z,1026.85
2016-12-18T04:50:13.644Z,1026.82
2016-12-18T04:51:24.382Z,1026.84
2016-12-18T04:52:35.107Z,1026.79
2016-12-18T04:53:45.811Z,1026.79
2016-12-18T04:54:56.550Z,1026.81
2016-12-18T04:56:07.266Z,1026.74
2016-12-18T04:57:18.292Z,1026.76
2016-12-18T04:58:29.067Z,1026.72
2016-12-18T04:59:39.788Z,1026.68
2016-12-18T05:00:50.548Z,1026.63
2016-12-18T05:02:01.318Z,1026.63
2016-12-18T05:03:12.351Z,1026.57
2016-12-18T05:04:23.071Z,1026.63
2016-12-18T05:05:33.793Z,1026.62
2016-12-18T05:06:44.509Z,1026.61
2016-12-18T05:07:55.208Z,1026.58
2016-12-18T05:09:05.955Z,1026.59
2016-12-18T05:10:16.681Z,1026.54
2016-12-18T05:11:27.415Z,1026.49
2016-12-18T05:12:38.144Z,1026.46
2016-12-18T05:13:48.882Z,1026.47
2016-12-18T05:14:59.640Z,1026.42
2016-12-18T05:16:10.357Z,1026.39
2016-12-18T05:17:21.093Z,1026.33
2016-12-18T05:18:31.816Z,1026.32
2016-12-18T05:19:42.544Z,1026.37
2016-12-18T05:20:53.287Z,1026.29
2016-12-18T05:22:04.013Z,1026.19
2016-12-18T05:23:14.722Z,1026.14
2016-12-18T05:24:25.425Z,1026.14
2016-12-18T05:25:36.150Z,1026.13
2016-12-18T05:26:46.872Z,1026.1
2016-12-18T05:27:57.596Z,1026.15
2016-12-18T05:29:08.337Z,1026.19
2016-12-18T05:30:19.075Z,1026.2
2016-12-18T05:31:29.776Z,1026.21
2016-12-18T05:32:40.506Z,1026.28
2016-12-18T05:33:51.239Z,1026.28
2016-12-18T05:35:01.967Z,1026.3
2016-12-18T05:36:12.713Z,1026.32
2016-12-18T05:37:23.456Z,1026.32
2016-12-18T05:38:34.182Z,1026.26
2016-12-18T05:39:44.920Z,1026.26
2016-12-18T05:40:55.665Z,1026.29
2016-12-18T05:42:06.412Z,1026.27
2016-12-18T05:43:17.108Z,1026.25
2016-12-18T05:44:27.828Z,1026.25
2016-12-18T05:45:38.549Z,1026.27
2016-12-18T05:46:49.270Z,1026.32
2016-12-18T05:48:00.015Z,1026.27
2016-12-18T05:49:10.741Z,1026.28
2016-12-18T05:50:21.462Z,1026.22
2016-12-18T05:51:32.201Z,1026.22
2016-12-18T05:52:42.932Z,1026.28
2016-12-18T05:53:53.668Z,1026.23
2016-12-18T05:55:04.402Z,1026.22
2016-12-18T05:56:15.135Z,1026.22
2016-12-18T05:57:25.834Z,1026.15
2016-12-18T05:58:36.576Z,1026.11
2016-12-18T05:59:47.299Z,1026.1
2016-12-18T06:00:58.030Z,1026.12
2016-12-18T06:02:08.775Z,1026.14
2016-12-18T06:03:19.489Z,1026.12
2016-12-18T06:04:30.223Z,1026.11
2016-12-18T06:05:40.939Z,1026.05
2016-12-18T06:06:51.675Z,1026.11
2016-12-18T06:08:02.402Z,1026.06
2016-12-18T06:09:13.124Z,1026.09
2016-12-18T06:10:23.837Z,1026.04
2016-12-18T06:11:34.542Z,1026.07
2016-12-18T06:12:45.289Z,1026.02
2016-12-18T06:13:56.025Z,1026.1
2016-12-18T06:15:06.747Z,1026.08
2016-12-18T06:16:17.467Z,1026.05
2016-12-18T06:17:28.175Z,1026.07
2016-12-18T06:18:38.909Z,1026.04
2016-12-18T06:19:49.630Z,1026.07
2016-12-18T06:21:00.335Z,1026.04
2016-12-18T06:22:11.055Z,1026.02
2016-12-18T06:23:21.793Z,1026.02
2016-12-18T06:24:32.525Z,1026.03
2016-12-18T06:25:43.271Z,1026.04
2016-12-18T06:26:54.022Z,1026.01
2016-12-18T06:28:04.759Z,1026.04
2016-12-18T06:29:15.484Z,1026.03
2016-12-18T06:30:26.252Z,1026.03
2016-12-18T06:31:36.975Z,1026.04
2016-12-18T06:32:47.764Z,1025.99
2016-12-18T06:33:58.492Z,1025.94
2016-12-18T06:35:09.213Z,1025.95
2016-12-18T06:36:19.934Z,1025.95
2016-12-18T06:37:30.672Z,1025.93
2016-12-18T06:38:41.415Z,1025.97
2016-12-18T06:39:52.119Z,1025.9
2016-12-18T06:41:02.872Z,1025.88
2016-12-18T06:42:13.603Z,1025.86
2016-12-18T06:43:24.308Z,1025.87
2016-12-18T06:44:35.049Z,1025.91
2016-12-18T06:45:45.799Z,1025.87
2016-12-18T06:46:56.521Z,1025.9
2016-12-18T06:48:07.241Z,1025.84
2016-12-18T06:49:17.965Z,1025.79
2016-12-18T06:50:28.702Z,1025.8
2016-12-18T06:51:39.421Z,1025.82
2016-12-18T06:52:50.127Z,1025.86
2016-12-18T06:54:00.866Z,1025.89
2016-12-18T06:55:11.566Z,1025.91
2016-12-18T06:56:22.287Z,1025.95
2016-12-18T06:57:33.016Z,1025.93
2016-12-18T06:58:43.733Z,1025.89
2016-12-18T06:59:54.452Z,1025.92
2016-12-18T07:01:05.179Z,1025.92
2016-12-18T07:02:15.924Z,1025.91
2016-12-18T07:03:26.667Z,1025.98
2016-12-18T07:04:37.438Z,1025.97
2016-12-18T07:05:48.161Z,1025.99
2016-12-18T07:06:58.931Z,1025.98
2016-12-18T07:08:09.639Z,1026.01
2016-12-18T07:09:20.344Z,1025.99
2016-12-18T07:10:31.046Z,1025.99
2016-12-18T07:11:41.788Z,1025.94
2016-12-18T07:12:52.522Z,1025.97
2016-12-18T07:14:03.255Z,1025.96
2016-12-18T07:15:13.991Z,1025.95
2016-12-18T07:16:24.719Z,1025.97
2016-12-18T07:17:35.439Z,1025.99
2016-12-18T07:18:46.160Z,1026.03
2016-12-18T07:19:56.900Z,1025.99
2016-12-18T07:21:07.606Z,1026.03
2016-12-18T07:22:18.348Z,1025.98
2016-12-18T07:23:29.119Z,1026.03
2016-12-18T07:24:39.861Z,1025.98
2016-12-18T07:25:50.588Z,1025.95
2016-12-18T07:27:01.330Z,1025.94
2016-12-18T07:28:12.074Z,1025.91
2016-12-18T07:29:22.795Z,1025.85
2016-12-18T07:30:33.528Z,1025.86
2016-12-18T07:31:44.258Z,1025.88
2016-12-18T07:32:55.004Z,1025.95
2016-12-18T07:34:06.001Z,1025.97
2016-12-18T07:35:16.732Z,1025.92
2016-12-18T07:36:27.476Z,1025.95
2016-12-18T07:37:38.192Z,1025.86
2016-12-18T07:38:48.917Z,1025.9
2016-12-18T07:39:59.642Z,1025.89
2016-12-18T07:41:10.359Z,1025.89
2016-12-18T07:42:21.105Z,1025.93
2016-12-18T07:43:31.821Z,1025.97
2016-12-18T07:44:42.522Z,1025.97
2016-12-18T07:45:53.292Z,1026
2016-12-18T07:47:04.042Z,1025.97
2016-12-18T07:48:14.787Z,1025.93
2016-12-18T07:49:25.534Z,1025.95
2016-12-18T07:50:36.296Z,1025.99
2016-12-18T07:51:47.024Z,1025.99
2016-12-18T07:52:57.793Z,1025.99
2016-12-18T07:54:08.531Z,1025.98
2016-12-18T07:55:19.259Z,1025.97
2016-12-18T07:56:30.026Z,1026.03
2016-12-18T07:57:40.768Z,1026.02
2016-12-18T07:58:51.490Z,1026.03
2016-12-18T08:00:02.200Z,1026.04
2016-12-18T08:01:12.939Z,1026.01
2016-12-18T08:02:23.688Z,1026.06
2016-12-18T08:03:34.407Z,1026.04
2016-12-18T08:04:45.147Z,1026.06
2016-12-18T08:05:55.864Z,1026.03
2016-12-18T08:07:06.597Z,1026.03
2016-12-18T08:08:17.334Z,1026.03
2016-12-18T08:09:28.052Z,1026.03
2016-12-18T08:10:38.789Z,1026.03
2016-12-18T08:11:49.526Z,1026.02
2016-12-18T08:13:00.222Z,1026.04
2016-12-18T08:14:10.971Z,1026.05
2016-12-18T08:15:21.710Z,1026.03
2016-12-18T08:16:32.437Z,1026.04
2016-12-18T08:17:43.159Z,1026
2016-12-18T08:18:53.869Z,1026.04
2016-12-18T08:20:04.606Z,1026.03
2016-12-18T08:21:15.340Z,1026.01
2016-12-18T08:22:26.057Z,1025.99
2016-12-18T08:23:36.761Z,1025.99
2016-12-18T08:24:47.475Z,1025.99
2016-12-18T08:25:58.178Z,1025.98
2016-12-18T08:27:08.954Z,1025.99
2016-12-18T08:28:19.696Z,1026.02
2016-12-18T08:29:30.409Z,1026
2016-12-18T08:30:41.138Z,1025.97
2016-12-18T08:31:51.837Z,1025.92
2016-12-18T08:33:02.583Z,1025.96
2016-12-18T08:34:13.318Z,1025.95
2016-12-18T08:35:24.318Z,1025.98
2016-12-18T08:36:35.038Z,1025.95
2016-12-18T08:37:45.767Z,1025.99
2016-12-18T08:38:56.511Z,1025.99
2016-12-18T08:40:07.235Z,1026.04
2016-12-18T08:41:17.948Z,1026
2016-12-18T08:42:28.674Z,1025.98
2016-12-18T08:43:39.398Z,1025.99
2016-12-18T08:44:50.133Z,1025.98
2016-12-18T08:46:00.828Z,1026.01
2016-12-18T08:47:11.554Z,1025.99
2016-12-18T08:48:22.270Z,1025.97
2016-12-18T08:49:33.003Z,1025.99
2016-12-18T08:50:43.756Z,1025.97
2016-12-18T08:51:54.495Z,1025.97
2016-12-18T08:53:05.238Z,1025.99
2016-12-18T08:54:15.962Z,1025.97
2016-12-18T08:55:26.675Z,1026.01
2016-12-18T08:56:37.422Z,1026.02
2016-12-18T08:57:48.147Z,1025.99
2016-12-18T08:58:58.876Z,1025.96
2016-12-18T09:00:09.614Z,1026
2016-12-18T09:01:20.360Z,1026
2016-12-18T09:02:31.058Z,1025.99
2016-12-18T09:03:41.781Z,1025.94
2016-12-18T09:04:52.502Z,1025.96
2016-12-18T09:06:03.243Z,1025.99
2016-12-18T09:07:13.968Z,1025.92
2016-12-18T09:08:24.707Z,1025.92
2016-12-18T09:09:35.428Z,1025.9
2016-12-18T09:10:46.153Z,1025.91
2016-12-18T09:11:56.854Z,1025.9
2016-12-18T09:13:07.575Z,1025.89
2016-12-18T09:14:18.319Z,1025.89
2016-12-18T09:15:29.065Z,1025.91
2016-12-18T09:16:39.787Z,1025.86
2016-12-18T09:17:50.526Z,1025.81
2016-12-18T09:19:01.277Z,1025.83
2016-12-18T09:20:12.001Z,1025.81
2016-12-18T09:21:22.735Z,1025.77
2016-12-18T09:22:33.467Z,1025.79
2016-12-18T09:23:44.209Z,1025.8
2016-12-18T09:24:54.935Z,1025.82
2016-12-18T09:26:05.679Z,1025.8
2016-12-18T09:27:16.398Z,1025.74
2016-12-18T09:28:27.091Z,1025.78
2016-12-18T09:29:37.822Z,1025.76
2016-12-18T09:30:48.544Z,1025.75
2016-12-18T09:31:59.283Z,1025.69
2016-12-18T09:33:10.003Z,1025.68
2016-12-18T09:34:20.725Z,1025.66
2016-12-18T09:35:31.445Z,1025.67
2016-12-18T09:36:42.476Z,1025.64
2016-12-18T09:37:53.191Z,1025.68
2016-12-18T09:39:03.911Z,1025.67
2016-12-18T09:40:14.630Z,1025.66
2016-12-18T09:41:25.356Z,1025.67
2016-12-18T09:42:36.097Z,1025.62
2016-12-18T09:43:46.836Z,1025.65
2016-12-18T09:44:57.593Z,1025.6
2016-12-18T09:46:08.332Z,1025.54
2016-12-18T09:47:19.052Z,1025.54
2016-12-18T09:48:29.773Z,1025.55
2016-12-18T09:49:40.519Z,1025.53
2016-12-18T09:50:51.220Z,1025.51
2016-12-18T09:52:01.995Z,1025.48
2016-12-18T09:53:12.715Z,1025.45
2016-12-18T09:54:23.736Z,1025.47
2016-12-18T09:55:34.484Z,1025.46
2016-12-18T09:56:45.202Z,1025.47
2016-12-18T09:57:55.924Z,1025.45
2016-12-18T09:59:06.641Z,1025.4
2016-12-18T10:00:17.388Z,1025.4
2016-12-18T10:01:28.111Z,1025.39
2016-12-18T10:02:38.823Z,1025.38
2016-12-18T10:03:49.551Z,1025.39
2016-12-18T10:05:00.272Z,1025.39
2016-12-18T10:06:10.994Z,1025.33
2016-12-18T10:07:21.732Z,1025.29
2016-12-18T10:08:32.463Z,1025.29
2016-12-18T10:09:43.210Z,1025.3
2016-12-18T10:10:53.953Z,1025.25
2016-12-18T10:12:04.949Z,1025.26
2016-12-18T10:13:15.669Z,1025.27
2016-12-18T10:14:26.411Z,1025.25
2016-12-18T10:15:37.114Z,1025.28
2016-12-18T10:16:47.857Z,1025.27
2016-12-18T10:17:58.579Z,1025.23
2016-12-18T10:19:09.342Z,1025.26
2016-12-18T10:20:20.068Z,1025.23
2016-12-18T10:21:30.813Z,1025.2
2016-12-18T10:22:41.541Z,1025.18
2016-12-18T10:23:52.279Z,1025.19
2016-12-18T10:25:03.026Z,1025.17
2016-12-18T10:26:13.779Z,1025.14
2016-12-18T10:27:24.549Z,1025.18
2016-12-18T10:28:35.264Z,1025.16
2016-12-18T10:29:45.988Z,1025.16
2016-12-18T10:30:56.738Z,1025.19
2016-12-18T10:32:07.458Z,1025.11
2016-12-18T10:33:18.206Z,1025.14
2016-12-18T10:34:28.968Z,1025.09
2016-12-18T10:35:39.698Z,1025.1
2016-12-18T10:36:50.440Z,1025.11
2016-12-18T10:38:01.165Z,1025.02
2016-12-18T10:39:11.911Z,1025.06
2016-12-18T10:40:22.957Z,1025.06
2016-12-18T10:41:33.678Z,1025.02
2016-12-18T10:42:44.449Z,1025.03
2016-12-18T10:43:55.194Z,1025
2016-12-18T10:45:05.941Z,1024.9
2016-12-18T10:46:16.688Z,1024.97
2016-12-18T10:47:27.422Z,1024.91
2016-12-18T10:48:38.129Z,1024.94
2016-12-18T10:49:48.875Z,1024.94
2016-12-18T10:50:59.621Z,1024.94
2016-12-18T10:52:10.363Z,1024.9
2016-12-18T10:53:21.101Z,1024.9
2016-12-18T10:54:31.821Z,1024.84
2016-12-18T10:55:42.555Z,1024.86
2016-12-18T10:56:53.326Z,1024.85
2016-12-18T10:58:04.073Z,1024.84
2016-12-18T10:59:14.781Z,1024.86
2016-12-18T11:00:25.501Z,1024.85
2016-12-18T11:01:36.211Z,1024.92
2016-12-18T11:02:46.930Z,1024.87
2016-12-18T11:03:57.669Z,1024.85
2016-12-18T11:05:08.418Z,1024.88
2016-12-18T11:06:19.439Z,1024.78
2016-12-18T11:07:30.185Z,1024.74
2016-12-18T11:08:40.905Z,1024.77
2016-12-18T11:09:51.626Z,1024.81
2016-12-18T11:11:02.372Z,1024.8
2016-12-18T11:12:13.093Z,1024.8
2016-12-18T11:13:23.844Z,1024.79
2016-12-18T11:14:34.564Z,1024.78
2016-12-18T11:15:45.281Z,1024.8
2016-12-18T11:16:56.024Z,1024.79
2016-12-18T11:18:06.729Z,1024.75
2016-12-18T11:19:17.462Z,1024.74
2016-12-18T11:20:28.192Z,1024.71
2016-12-18T11:21:38.911Z,1024.73
2016-12-18T11:22:49.649Z,1024.7
2016-12-18T11:24:00.361Z,1024.74
2016-12-18T11:25:11.099Z,1024.72
2016-12-18T11:26:21.819Z,1024.75
2016-12-18T11:27:32.865Z,1024.73
2016-12-18T11:28:43.588Z,1024.74
2016-12-18T11:29:54.610Z,1024.72
2016-12-18T11:31:05.328Z,1024.72
2016-12-18T11:32:16.044Z,1024.69
2016-12-18T11:33:27.076Z,1024.68
2016-12-18T11:34:37.792Z,1024.7
2016-12-18T11:35:48.541Z,1024.67
2016-12-18T11:36:59.283Z,1024.73
2016-12-18T11:38:10.005Z,1024.74
2016-12-18T11:39:20.754Z,1024.73
2016-12-18T11:40:31.491Z,1024.66
2016-12-18T11:41:42.245Z,1024.69
2016-12-18T11:42:52.971Z,1024.68
2016-12-18T11:44:03.684Z,1024.69
2016-12-18T11:45:14.422Z,1024.67
2016-12-18T11:46:25.180Z,1024.63
2016-12-18T11:47:35.947Z,1024.64
2016-12-18T11:48:46.694Z,1024.64
2016-12-18T11:49:57.419Z,1024.63
2016-12-18T11:51:08.153Z,1024.68
2016-12-18T11:52:18.883Z,1024.62
2016-12-18T11:53:29.604Z,1024.64
2016-12-18T11:54:40.329Z,1024.6
2016-12-18T11:55:51.063Z,1024.57
2016-12-18T11:57:01.783Z,1024.6
2016-12-18T11:58:12.493Z,1024.57
2016-12-18T11:59:23.232Z,1024.61
2016-12-18T12:00:33.953Z,1024.58
2016-12-18T12:01:44.699Z,1024.6
2016-12-18T12:02:55.448Z,1024.63
2016-12-18T12:04:06.174Z,1024.57
2016-12-18T12:05:16.893Z,1024.59
2016-12-18T12:06:27.661Z,1024.54
2016-12-18T12:07:38.409Z,1024.59
2016-12-18T12:08:49.179Z,1024.62
2016-12-18T12:09:59.897Z,1024.58
2016-12-18T12:11:11.221Z,1024.63
2016-12-18T12:12:21.964Z,1024.6
2016-12-18T12:13:32.659Z,1024.66
2016-12-18T12:14:43.385Z,1024.64
2016-12-18T12:15:54.123Z,1024.61
2016-12-18T12:17:04.876Z,1024.65
2016-12-18T12:18:15.611Z,1024.61
2016-12-18T12:19:26.319Z,1024.58
2016-12-18T12:20:37.064Z,1024.61
2016-12-18T12:21:47.808Z,1024.61
2016-12-18T12:22:58.556Z,1024.57
2016-12-18T12:24:09.299Z,1024.61
2016-12-18T12:25:20.038Z,1024.58
2016-12-18T12:26:30.766Z,1024.6
2016-12-18T12:27:41.515Z,1024.58
2016-12-18T12:28:52.253Z,1024.59
2016-12-18T12:30:03.008Z,1024.56
2016-12-18T12:31:13.729Z,1024.55
2016-12-18T12:32:24.452Z,1024.55
2016-12-18T12:33:35.168Z,1024.55
2016-12-18T12:34:45.920Z,1024.53
2016-12-18T12:35:56.637Z,1024.56
2016-12-18T12:37:07.361Z,1024.53
2016-12-18T12:38:18.132Z,1024.52
2016-12-18T12:39:28.873Z,1024.58
2016-12-18T12:40:39.598Z,1024.56
2016-12-18T12:41:50.315Z,1024.5
2016-12-18T12:43:01.054Z,1024.45
2016-12-18T12:44:11.782Z,1024.47
2016-12-18T12:45:22.509Z,1024.46
2016-12-18T12:46:33.225Z,1024.42
2016-12-18T12:47:43.970Z,1024.4
2016-12-18T12:48:54.736Z,1024.36
2016-12-18T12:50:05.487Z,1024.37
2016-12-18T12:51:16.208Z,1024.38
2016-12-18T12:52:26.959Z,1024.37
2016-12-18T12:53:37.703Z,1024.37
2016-12-18T12:54:48.450Z,1024.37
2016-12-18T12:55:59.195Z,1024.33
2016-12-18T12:57:09.913Z,1024.39
2016-12-18T12:58:20.680Z,1024.39
2016-12-18T12:59:31.384Z,1024.4
2016-12-18T13:00:42.130Z,1024.37
2016-12-18T13:01:52.876Z,1024.38
2016-12-18T13:03:03.618Z,1024.42
2016-12-18T13:04:14.361Z,1024.44
2016-12-18T13:05:25.110Z,1024.44
2016-12-18T13:06:35.856Z,1024.44
2016-12-18T13:07:46.603Z,1024.41
2016-12-18T13:08:57.319Z,1024.4
2016-12-18T13:10:08.045Z,1024.4
2016-12-18T13:11:18.765Z,1024.43
2016-12-18T13:12:29.512Z,1024.42
2016-12-18T13:13:40.241Z,1024.4
2016-12-18T13:14:50.972Z,1024.4
2016-12-18T13:16:01.704Z,1024.43
2016-12-18T13:17:12.446Z,1024.45
2016-12-18T13:18:23.195Z,1024.49
2016-12-18T13:19:33.942Z,1024.5
2016-12-18T13:20:44.712Z,1024.52
2016-12-18T13:21:55.433Z,1024.5
2016-12-18T13:23:06.176Z,1024.48
2016-12-18T13:24:16.897Z,1024.5
2016-12-18T13:25:27.621Z,1024.54
2016-12-18T13:26:38.367Z,1024.51
2016-12-18T13:27:49.081Z,1024.46
2016-12-18T13:28:59.835Z,1024.5
2016-12-18T13:30:10.579Z,1024.49
2016-12-18T13:31:21.327Z,1024.5
2016-12-18T13:32:32.068Z,1024.48
2016-12-18T13:33:42.841Z,1024.54
2016-12-18T13:34:53.588Z,1024.54
2016-12-18T13:36:04.333Z,1024.55
2016-12-18T13:37:15.076Z,1024.56
2016-12-18T13:38:25.802Z,1024.54
2016-12-18T13:39:36.522Z,1024.51
2016-12-18T13:40:47.268Z,1024.58
2016-12-18T13:41:58.006Z,1024.56
2016-12-18T13:43:08.734Z,1024.57
2016-12-18T13:44:19.448Z,1024.55
2016-12-18T13:45:30.173Z,1024.58
2016-12-18T13:46:40.919Z,1024.57
2016-12-18T13:47:51.666Z,1024.56
2016-12-18T13:49:02.390Z,1024.6
2016-12-18T13:50:13.131Z,1024.61
2016-12-18T13:51:23.879Z,1024.58
2016-12-18T13:52:34.603Z,1024.58
2016-12-18T13:53:45.351Z,1024.6
2016-12-18T13:54:56.083Z,1024.59
2016-12-18T13:56:06.810Z,1024.54
2016-12-18T13:57:17.558Z,1024.58
2016-12-18T13:58:28.300Z,1024.57
2016-12-18T13:59:39.054Z,1024.59
2016-12-18T14:00:49.789Z,1024.6
2016-12-18T14:02:00.492Z,1024.62
2016-12-18T14:03:11.213Z,1024.58
2016-12-18T14:04:21.914Z,1024.53
2016-12-18T14:05:32.655Z,1024.54
2016-12-18T14:06:43.381Z,1024.48
2016-12-18T14:07:54.126Z,1024.51
2016-12-18T14:09:04.867Z,1024.52
2016-12-18T14:10:15.592Z,1024.49
2016-12-18T14:11:26.327Z,1024.49
2016-12-18T14:12:37.355Z,1024.45
2016-12-18T14:13:48.102Z,1024.41
2016-12-18T14:14:58.826Z,1024.45
2016-12-18T14:16:09.570Z,1024.44
2016-12-18T14:17:20.281Z,1024.44
2016-12-18T14:18:31.011Z,1024.41